Time;durP1;ratioP1;P1;durP2;ratioP2;P2;SDS_P1;SDS_P2;PMS_P1;PMS_P2;Temp;Humidity;BMP_temperature;BMP_pressure;BME280_temperature;BME280_humidity;BME280_pressure;Samples;Min_cycle;Max_cycle;Signal;HPM_P1;HPM_P2
2022/12/15 00:40:06;;;;;;;18.90;17.10;;;;;;;;;;5073718;28;20109;-75
2022/12/15 00:42:32;;;;;;;17.05;15.45;;;;;;;;;;5076177;28;20036;-76
2022/12/15 00:44:57;;;;;;;24.80;22.30;;;;;;;;;;5055675;28;20032;-74
2022/12/15 00:47:22;;;;;;;27.05;24.25;;;;;;;;;;5069533;28;20042;-75
2022/12/15 01:22:38;;;;;;;17.77;15.27;;;;;;;;;;5077719;28;20165;-77
2022/12/15 01:25:04;;;;;;;12.20;11.00;;;;;;;;;;5080142;28;20431;-75
2022/12/15 01:27:30;;;;;;;10.35;9.35;;;;;;;;;;5081022;28;20389;-74
2022/12/15 01:29:55;;;;;;;12.65;11.35;;;;;;;;;;5080091;28;20738;-76
2022/12/15 01:32:20;;;;;;;10.82;9.77;;;;;;;;;;5077074;28;20036;-76
2022/12/15 01:34:46;;;;;;;16.02;14.35;;;;;;;;;;5065217;28;20044;-75
2022/12/15 01:37:11;;;;;;;16.85;15.10;;;;;;;;;;5059163;28;20119;-74
2022/12/15 01:42:20;;;;;;;14.27;12.75;;;;;;;;;;5078293;28;20059;-74
2022/12/15 01:44:48;;;;;;;9.27;8.43;;;;;;;;;;5077730;28;20439;-74
2022/12/15 01:47:14;;;;;;;14.52;13.02;;;;;;;;;;5080044;28;20107;-74
2022/12/15 01:49:40;;;;;;;16.58;13.73;;;;;;;;;;5079424;28;20103;-75
2022/12/15 01:52:07;;;;;;;20.67;18.08;;;;;;;;;;5075874;28;20039;-74
2022/12/15 01:54:53;;;;;;;28.50;20.95;;;;;;;;;;5075267;28;21054;-74
2022/12/15 01:57:24;;;;;;;38.10;26.00;;;;;;;;;;5076778;28;20047;-74
2022/12/15 01:59:51;;;;;;;23.42;16.25;;;;;;;;;;5079072;28;20040;-76
2022/12/15 02:02:17;;;;;;;69.47;42.13;;;;;;;;;;5078444;28;20126;-74
2022/12/15 02:04:43;;;;;;;23.30;16.63;;;;;;;;;;5079056;28;20040;-74
2022/12/15 02:07:13;;;;;;;17.65;13.18;;;;;;;;;;5064984;28;20141;-77
2022/12/15 02:09:38;;;;;;;78.57;41.20;;;;;;;;;;5068198;28;20763;-75
2022/12/15 02:12:08;;;;;;;70.97;37.92;;;;;;;;;;5074258;28;20024;-74
2022/12/15 02:14:36;;;;;;;57.67;35.70;;;;;;;;;;5067208;28;20045;-75
2022/12/15 02:17:13;;;;;;;47.30;27.52;;;;;;;;;;5079303;28;20036;-77
2022/12/15 02:19:57;;;;;;;27.70;19.33;;;;;;;;;;5069780;28;20381;-77
2022/12/15 02:22:34;;;;;;;60.63;39.53;;;;;;;;;;5075048;28;20027;-78
2022/12/15 02:25:05;;;;;;;88.50;53.60;;;;;;;;;;5056590;28;20085;-75
2022/12/15 02:27:34;;;;;;;76.13;48.83;;;;;;;;;;5071165;28;20032;-73
2022/12/15 02:30:15;;;;;;;159.80;102.13;;;;;;;;;;5067182;28;20061;-76
2022/12/15 02:32:53;;;;;;;73.10;48.47;;;;;;;;;;5076609;28;20664;-73
2022/12/15 02:35:33;;;;;;;25.02;19.08;;;;;;;;;;5077106;28;20110;-79
2022/12/15 02:37:59;;;;;;;99.85;69.65;;;;;;;;;;5077428;28;20445;-74
2022/12/15 02:40:24;;;;;;;51.40;37.63;;;;;;;;;;5077163;28;20130;-75
2022/12/15 02:42:51;;;;;;;22.98;19.67;;;;;;;;;;5075624;28;20036;-75
2022/12/15 02:45:20;;;;;;;21.55;18.20;;;;;;;;;;5080444;28;20801;-77
2022/12/15 02:48:21;;;;;;;11.73;10.52;;;;;;;;;;5056880;28;20031;-80
2022/12/15 02:50:57;;;;;;;13.57;12.18;;;;;;;;;;5059762;28;20126;-76
2022/12/15 02:53:33;;;;;;;66.05;51.03;;;;;;;;;;5076951;28;20024;-75
2022/12/15 02:56:04;;;;;;;35.65;29.13;;;;;;;;;;5076093;28;20141;-75
2022/12/15 02:58:37;;;;;;;15.75;14.25;;;;;;;;;;5076979;28;20032;-76
2022/12/15 03:01:07;;;;;;;33.67;30.17;;;;;;;;;;5077560;28;20119;-76
2022/12/15 03:03:33;;;;;;;29.95;26.95;;;;;;;;;;5078771;28;20032;-77
2022/12/15 03:06:01;;;;;;;23.40;21.05;;;;;;;;;;5075444;28;20028;-76
2022/12/15 03:08:26;;;;;;;29.10;26.08;;;;;;;;;;5076869;28;20499;-75
2022/12/15 03:10:53;;;;;;;18.15;16.35;;;;;;;;;;5059611;28;20115;-75
2022/12/15 03:13:18;;;;;;;22.48;20.08;;;;;;;;;;5075746;28;20084;-77
2022/12/15 03:15:44;;;;;;;31.92;27.00;;;;;;;;;;5075341;28;20078;-78
2022/12/15 03:18:09;;;;;;;46.40;38.33;;;;;;;;;;5076077;28;20035;-76
2022/12/15 03:20:35;;;;;;;145.75;84.57;;;;;;;;;;5077311;28;20040;-75
2022/12/15 03:23:00;;;;;;;32.40;24.23;;;;;;;;;;5077826;28;20115;-75
2022/12/15 03:25:26;;;;;;;34.50;26.88;;;;;;;;;;5078162;28;20035;-74
2022/12/15 03:27:51;;;;;;;27.00;22.52;;;;;;;;;;5077827;28;20020;-79
2022/12/15 03:30:16;;;;;;;78.90;57.00;;;;;;;;;;5074252;28;20035;-76
2022/12/15 03:32:42;;;;;;;55.45;42.55;;;;;;;;;;5067306;28;20031;-75
2022/12/15 03:35:07;;;;;;;41.75;21.58;;;;;;;;;;5076645;28;20046;-78
2022/12/15 03:37:33;;;;;;;37.53;30.45;;;;;;;;;;5076253;28;20024;-76
2022/12/15 03:39:58;;;;;;;29.73;26.17;;;;;;;;;;5076548;28;20582;-79
2022/12/15 03:45:07;;;;;;;33.97;27.67;;;;;;;;;;5078662;28;20465;-75
2022/12/15 03:47:33;;;;;;;34.15;28.27;;;;;;;;;;5053643;28;20032;-75
2022/12/15 03:49:58;;;;;;;26.20;23.25;;;;;;;;;;5072742;28;20449;-74
2022/12/15 03:52:24;;;;;;;22.70;20.30;;;;;;;;;;5075030;28;20093;-75
2022/12/15 03:54:49;;;;;;;21.05;19.00;;;;;;;;;;5078181;28;20048;-78
2022/12/15 03:57:14;;;;;;;15.77;14.23;;;;;;;;;;5072447;28;20036;-76
2022/12/15 03:59:40;;;;;;;17.25;15.65;;;;;;;;;;5077449;28;20048;-74
2022/12/15 04:02:05;;;;;;;21.67;19.38;;;;;;;;;;5077392;28;20427;-81
2022/12/15 04:04:30;;;;;;;24.00;21.50;;;;;;;;;;5073717;28;20040;-77
2022/12/15 04:06:56;;;;;;;31.40;28.20;;;;;;;;;;5073967;28;20100;-75
2022/12/15 04:09:21;;;;;;;27.98;25.00;;;;;;;;;;5065607;28;20059;-73
2022/12/15 04:11:46;;;;;;;29.52;26.27;;;;;;;;;;5076468;28;20078;-75
2022/12/15 04:14:12;;;;;;;31.45;28.23;;;;;;;;;;5079158;28;20044;-75
2022/12/15 04:16:37;;;;;;;39.38;31.85;;;;;;;;;;5069972;28;20016;-74
2022/12/15 04:21:46;;;;;;;65.70;54.10;;;;;;;;;;5079225;28;20039;-76
2022/12/15 05:32:33;;;;;;;20.48;18.40;;;;;;;;;;5074467;28;20050;-73
2022/12/15 05:35:00;;;;;;;38.60;34.53;;;;;;;;;;5056031;28;20036;-72
2022/12/15 05:37:25;;;;;;;37.00;33.05;;;;;;;;;;5066488;28;20028;-75
2022/12/15 05:39:50;;;;;;;42.85;38.15;;;;;;;;;;5076631;28;20031;-74
2022/12/15 05:42:16;;;;;;;53.50;45.92;;;;;;;;;;5064411;28;20027;-72
2022/12/15 05:44:42;;;;;;;171.27;118.93;;;;;;;;;;5064645;28;20027;-72
2022/12/15 05:47:08;;;;;;;102.43;74.47;;;;;;;;;;5067524;28;20346;-72
2022/12/15 05:49:34;;;;;;;37.72;31.25;;;;;;;;;;5063293;28;20483;-78
2022/12/15 05:51:59;;;;;;;186.05;137.77;;;;;;;;;;5056096;28;20059;-76
2022/12/15 05:54:24;;;;;;;131.50;103.15;;;;;;;;;;5063657;28;20070;-73
2022/12/15 05:56:50;;;;;;;67.18;53.53;;;;;;;;;;5062677;28;20025;-74
2022/12/15 05:59:15;;;;;;;45.63;40.35;;;;;;;;;;5060377;28;21308;-76
2022/12/15 06:01:41;;;;;;;44.38;39.58;;;;;;;;;;5062484;28;20035;-74
2022/12/15 06:04:07;;;;;;;104.90;84.50;;;;;;;;;;5063861;28;20028;-77
2022/12/15 06:06:32;;;;;;;127.93;103.00;;;;;;;;;;5064253;28;20023;-74
2022/12/15 06:08:58;;;;;;;60.40;53.83;;;;;;;;;;5062009;28;20028;-75
2022/12/15 06:11:23;;;;;;;51.83;46.40;;;;;;;;;;5058217;28;20124;-74
2022/12/15 06:13:49;;;;;;;36.38;32.58;;;;;;;;;;5060377;28;20044;-73
2022/12/15 06:16:16;;;;;;;51.75;46.30;;;;;;;;;;5071459;28;20404;-77
2022/12/15 06:18:45;;;;;;;100.28;82.20;;;;;;;;;;5078026;28;20097;-73
2022/12/15 06:21:12;;;;;;;93.97;79.32;;;;;;;;;;5079032;28;20463;-73
2022/12/15 06:23:38;;;;;;;50.47;45.08;;;;;;;;;;5081030;28;20097;-73
2022/12/15 06:26:27;;;;;;;35.17;31.48;;;;;;;;;;5077840;28;20024;-72
2022/12/15 06:28:54;;;;;;;70.15;62.60;;;;;;;;;;5065736;28;20142;-73
2022/12/15 06:31:24;;;;;;;268.15;239.57;;;;;;;;;;5077853;28;20032;-76
2022/12/15 06:33:50;;;;;;;73.03;65.13;;;;;;;;;;5059852;28;20035;-76
2022/12/15 06:36:16;;;;;;;38.20;34.20;;;;;;;;;;5056284;28;20036;-73
2022/12/15 06:38:42;;;;;;;38.13;34.17;;;;;;;;;;5071848;28;21024;-73
2022/12/15 06:41:08;;;;;;;40.30;36.17;;;;;;;;;;5076347;28;20036;-72
2022/12/15 06:43:33;;;;;;;58.80;52.42;;;;;;;;;;5077530;28;20308;-73
2022/12/15 06:45:59;;;;;;;33.30;29.70;;;;;;;;;;5080202;28;20436;-73
2022/12/15 06:48:24;;;;;;;91.68;80.80;;;;;;;;;;5073900;28;20024;-73
2022/12/15 06:50:50;;;;;;;91.05;81.32;;;;;;;;;;5061837;28;20024;-73
2022/12/15 06:53:16;;;;;;;83.75;65.32;;;;;;;;;;5074535;28;20024;-75
2022/12/15 06:55:42;;;;;;;71.05;57.83;;;;;;;;;;5078997;28;20105;-73
2022/12/15 06:58:07;;;;;;;146.57;118.70;;;;;;;;;;5061951;28;20028;-73
2022/12/15 07:00:35;;;;;;;106.65;89.53;;;;;;;;;;5077138;28;20067;-73
2022/12/15 07:03:02;;;;;;;83.13;73.72;;;;;;;;;;5077828;28;20344;-74
2022/12/15 07:05:28;;;;;;;96.85;82.40;;;;;;;;;;5078450;28;20143;-72
2022/12/15 07:07:53;;;;;;;239.25;171.02;;;;;;;;;;5077767;28;20459;-74
2022/12/15 07:10:18;;;;;;;208.77;145.32;;;;;;;;;;5076955;28;20516;-74
2022/12/15 07:12:44;;;;;;;116.18;84.30;;;;;;;;;;5075691;28;20355;-78
2022/12/15 07:15:10;;;;;;;99.45;71.63;;;;;;;;;;5056861;28;20064;-74
2022/12/15 07:17:35;;;;;;;128.35;99.97;;;;;;;;;;5058474;28;20029;-74
2022/12/15 07:20:01;;;;;;;157.25;132.50;;;;;;;;;;5056969;28;20024;-73
2022/12/15 07:22:27;;;;;;;109.88;92.40;;;;;;;;;;5059316;28;20036;-73
2022/12/15 07:24:52;;;;;;;120.95;99.82;;;;;;;;;;5059450;28;20058;-73
2022/12/15 07:27:18;;;;;;;127.25;103.45;;;;;;;;;;5057579;28;20031;-72
2022/12/15 07:29:43;;;;;;;147.05;120.50;;;;;;;;;;5057576;28;20113;-75
2022/12/15 07:32:08;;;;;;;135.85;104.97;;;;;;;;;;5056523;28;20024;-74
2022/12/15 07:34:34;;;;;;;142.93;109.25;;;;;;;;;;5057992;28;20028;-76
2022/12/15 07:36:59;;;;;;;171.75;115.18;;;;;;;;;;5058243;28;20056;-76
2022/12/15 07:39:26;;;;;;;186.18;131.25;;;;;;;;;;5057331;28;20145;-73
2022/12/15 07:41:51;;;;;;;142.45;107.85;;;;;;;;;;5056932;28;20139;-74
2022/12/15 07:44:16;;;;;;;135.70;111.47;;;;;;;;;;5057487;28;20436;-73
2022/12/15 07:46:45;;;;;;;166.55;133.00;;;;;;;;;;5057407;28;20032;-73
2022/12/15 07:49:11;;;;;;;238.10;199.40;;;;;;;;;;5061752;28;20429;-75
2022/12/15 07:51:36;;;;;;;237.20;192.10;;;;;;;;;;5059632;28;20028;-73
2022/12/15 07:54:02;;;;;;;195.05;158.50;;;;;;;;;;5060725;28;20458;-74
2022/12/15 07:56:27;;;;;;;182.10;149.85;;;;;;;;;;5061469;28;20447;-76
2022/12/15 07:58:53;;;;;;;145.40;120.35;;;;;;;;;;5061136;28;20021;-75
2022/12/15 08:01:18;;;;;;;130.23;105.78;;;;;;;;;;5062384;28;20037;-76
2022/12/15 08:03:44;;;;;;;114.57;97.50;;;;;;;;;;5061283;28;20020;-74
2022/12/15 08:06:13;;;;;;;107.38;90.25;;;;;;;;;;5061306;28;20059;-77
2022/12/15 08:08:38;;;;;;;114.50;95.07;;;;;;;;;;5061645;28;20040;-76
2022/12/15 08:11:08;;;;;;;152.55;124.78;;;;;;;;;;5061613;28;20459;-76
2022/12/15 08:13:33;;;;;;;175.50;139.82;;;;;;;;;;5069976;28;20086;-74
2022/12/15 08:15:59;;;;;;;198.52;161.40;;;;;;;;;;5081771;28;20427;-78
2022/12/15 08:18:24;;;;;;;232.27;184.25;;;;;;;;;;5081711;28;20032;-73
2022/12/15 08:20:50;;;;;;;190.13;153.90;;;;;;;;;;5080376;28;20452;-75
2022/12/15 08:23:15;;;;;;;180.05;150.60;;;;;;;;;;5082064;28;20032;-73
2022/12/15 08:25:41;;;;;;;181.55;148.25;;;;;;;;;;5081089;28;20571;-73
2022/12/15 08:28:07;;;;;;;204.65;165.07;;;;;;;;;;5081388;28;20027;-72
2022/12/15 08:30:33;;;;;;;238.48;200.70;;;;;;;;;;5081919;28;20359;-73
2022/12/15 08:32:58;;;;;;;256.52;206.52;;;;;;;;;;5081468;28;20343;-75
2022/12/15 08:35:24;;;;;;;268.60;218.52;;;;;;;;;;5080984;28;20032;-74
2022/12/15 08:37:49;;;;;;;226.32;186.70;;;;;;;;;;5079792;28;20696;-75
2022/12/15 08:40:14;;;;;;;241.98;197.60;;;;;;;;;;5082782;28;20030;-73
2022/12/15 08:42:40;;;;;;;192.23;153.57;;;;;;;;;;5080197;28;20055;-75
2022/12/15 08:45:06;;;;;;;152.35;123.07;;;;;;;;;;5062976;28;20362;-72
2022/12/15 08:47:31;;;;;;;185.98;148.38;;;;;;;;;;5081094;28;20024;-75
2022/12/15 08:49:56;;;;;;;311.27;238.68;;;;;;;;;;5082467;28;20024;-72
2022/12/15 08:52:22;;;;;;;179.27;148.65;;;;;;;;;;5080825;28;20447;-74
2022/12/15 08:54:48;;;;;;;122.63;109.03;;;;;;;;;;5080172;28;20098;-73
2022/12/15 08:57:13;;;;;;;143.40;121.53;;;;;;;;;;5081230;28;20077;-75
2022/12/15 08:59:38;;;;;;;136.63;114.25;;;;;;;;;;5079937;28;20024;-74
2022/12/15 09:02:04;;;;;;;176.88;137.35;;;;;;;;;;5080038;28;20081;-73
2022/12/15 09:04:29;;;;;;;102.80;81.20;;;;;;;;;;5081852;28;20101;-73
2022/12/15 09:06:54;;;;;;;111.43;93.07;;;;;;;;;;5079852;28;20023;-71
2022/12/15 09:09:20;;;;;;;112.38;90.15;;;;;;;;;;5079184;28;20027;-71
2022/12/15 09:11:45;;;;;;;78.18;67.60;;;;;;;;;;5061451;28;20028;-72
2022/12/15 09:14:10;;;;;;;73.65;65.65;;;;;;;;;;5080442;28;20052;-72
2022/12/15 09:16:36;;;;;;;70.75;63.00;;;;;;;;;;5080455;28;20034;-76
2022/12/15 09:19:02;;;;;;;66.95;59.72;;;;;;;;;;5080593;28;20024;-73
2022/12/15 09:21:28;;;;;;;53.42;47.40;;;;;;;;;;5079751;28;20036;-72
2022/12/15 09:23:56;;;;;;;82.13;71.72;;;;;;;;;;5079591;28;20085;-71
2022/12/15 09:26:22;;;;;;;83.80;71.32;;;;;;;;;;5082451;28;20035;-72
2022/12/15 09:28:49;;;;;;;105.18;84.55;;;;;;;;;;5079794;28;20016;-75
2022/12/15 09:31:21;;;;;;;120.30;99.55;;;;;;;;;;5082046;28;20063;-72
2022/12/15 09:33:47;;;;;;;95.72;77.85;;;;;;;;;;5078222;28;20024;-71
2022/12/15 09:36:13;;;;;;;124.03;91.28;;;;;;;;;;5081020;28;20028;-74
2022/12/15 09:38:39;;;;;;;171.95;115.60;;;;;;;;;;5080682;28;20417;-73
2022/12/15 09:41:17;;;;;;;106.43;85.78;;;;;;;;;;5079390;28;20038;-72
2022/12/15 09:43:57;;;;;;;89.70;76.30;;;;;;;;;;5079481;28;20850;-71
2022/12/15 09:46:31;;;;;;;98.57;80.57;;;;;;;;;;5080122;28;20085;-75
2022/12/15 09:48:58;;;;;;;110.93;86.43;;;;;;;;;;5061707;28;20033;-71
2022/12/15 09:51:35;;;;;;;92.15;77.07;;;;;;;;;;5080577;28;20081;-71
2022/12/15 09:54:00;;;;;;;85.22;69.72;;;;;;;;;;5079795;28;20024;-73
2022/12/15 09:56:32;;;;;;;66.78;57.03;;;;;;;;;;5079925;28;20040;-77
2022/12/15 09:59:08;;;;;;;83.00;64.40;;;;;;;;;;5077676;28;20016;-72
2022/12/15 10:01:39;;;;;;;60.42;52.50;;;;;;;;;;5079895;28;20020;-73
2022/12/15 10:04:05;;;;;;;57.85;49.88;;;;;;;;;;5077785;28;20019;-77
2022/12/15 10:06:33;;;;;;;87.45;69.57;;;;;;;;;;5080643;28;20035;-75
2022/12/15 10:09:08;;;;;;;56.80;50.00;;;;;;;;;;5079797;28;20445;-72
2022/12/15 10:11:33;;;;;;;53.00;47.40;;;;;;;;;;5077614;28;20058;-72
2022/12/15 10:14:06;;;;;;;65.05;58.15;;;;;;;;;;5079916;28;20065;-71
2022/12/15 10:16:43;;;;;;;51.90;45.15;;;;;;;;;;5078944;28;20063;-72
2022/12/15 10:19:12;;;;;;;51.33;44.78;;;;;;;;;;5078627;28;20082;-76
2022/12/15 10:21:38;;;;;;;46.37;41.30;;;;;;;;;;5078603;28;20024;-72
2022/12/15 10:24:13;;;;;;;51.70;46.08;;;;;;;;;;5079108;28;20023;-71
2022/12/15 10:26:40;;;;;;;36.13;32.30;;;;;;;;;;5060489;28;20039;-71
2022/12/15 10:29:05;;;;;;;45.70;40.75;;;;;;;;;;5079393;28;20037;-71
2022/12/15 10:31:36;;;;;;;67.32;56.45;;;;;;;;;;5076246;28;20020;-72
2022/12/15 10:34:10;;;;;;;61.17;54.85;;;;;;;;;;5077819;28;20024;-77
2022/12/15 10:36:35;;;;;;;52.90;47.17;;;;;;;;;;5080628;28;20118;-72
2022/12/15 10:39:00;;;;;;;115.63;96.20;;;;;;;;;;5078037;28;20502;-72
2022/12/15 10:41:30;;;;;;;90.57;79.70;;;;;;;;;;5077683;28;20351;-73
2022/12/15 10:43:56;;;;;;;96.88;85.00;;;;;;;;;;5061166;28;20031;-73
2022/12/15 10:46:23;;;;;;;94.30;84.65;;;;;;;;;;5078490;28;20028;-72
2022/12/15 10:48:49;;;;;;;85.47;77.00;;;;;;;;;;5077920;28;20028;-71
2022/12/15 10:51:31;;;;;;;75.45;67.55;;;;;;;;;;5078311;28;20024;-75
2022/12/15 10:53:59;;;;;;;77.30;69.20;;;;;;;;;;5081734;28;20096;-74
2022/12/15 10:56:25;;;;;;;104.38;93.38;;;;;;;;;;5079842;28;20113;-72
2022/12/15 10:58:52;;;;;;;99.40;87.85;;;;;;;;;;5078811;28;20062;-71
2022/12/15 11:01:23;;;;;;;128.95;109.50;;;;;;;;;;5079782;28;20346;-73
2022/12/15 11:03:51;;;;;;;142.25;126.78;;;;;;;;;;5077367;28;20044;-73
2022/12/15 11:06:24;;;;;;;208.60;186.98;;;;;;;;;;5079562;28;20032;-73
2022/12/15 11:08:50;;;;;;;179.02;160.27;;;;;;;;;;5078270;28;20447;-73
2022/12/15 11:14:27;;;;;;;181.68;161.68;;;;;;;;;;5078241;28;20064;-73
2022/12/15 11:16:53;;;;;;;199.73;177.75;;;;;;;;;;5078187;28;20457;-72
2022/12/15 11:19:38;;;;;;;144.30;128.68;;;;;;;;;;5076793;28;20438;-74
2022/12/15 11:22:19;;;;;;;125.78;112.10;;;;;;;;;;5076961;28;20115;-72
2022/12/15 11:24:48;;;;;;;128.13;113.68;;;;;;;;;;5079806;28;20046;-73
2022/12/15 11:27:14;;;;;;;125.80;112.40;;;;;;;;;;5079548;28;20043;-72
2022/12/15 11:29:58;;;;;;;144.00;128.73;;;;;;;;;;5078037;28;20685;-72
2022/12/15 11:32:25;;;;;;;179.13;159.32;;;;;;;;;;5077797;28;20395;-75
2022/12/15 11:34:50;;;;;;;181.80;158.23;;;;;;;;;;5077674;28;20032;-72
2022/12/15 11:37:18;;;;;;;182.93;163.43;;;;;;;;;;5078658;28;20039;-72
2022/12/15 11:39:50;;;;;;;248.07;210.82;;;;;;;;;;5076491;28;20028;-74
2022/12/15 11:42:34;;;;;;;267.85;235.68;;;;;;;;;;5077799;28;20031;-74
2022/12/15 11:45:07;;;;;;;228.80;200.20;;;;;;;;;;5077552;28;20028;-72
2022/12/15 11:47:43;;;;;;;244.35;206.13;;;;;;;;;;5080175;28;20045;-73
2022/12/15 11:50:08;;;;;;;206.60;181.57;;;;;;;;;;5076947;28;20051;-75
2022/12/15 11:52:40;;;;;;;173.25;154.35;;;;;;;;;;5075671;28;20439;-75
2022/12/15 11:55:11;;;;;;;194.70;164.70;;;;;;;;;;5077874;28;20679;-73
2022/12/15 11:57:36;;;;;;;161.77;144.05;;;;;;;;;;5075039;28;20354;-72
2022/12/15 12:00:14;;;;;;;165.48;147.68;;;;;;;;;;5077010;28;20534;-76
2022/12/15 12:02:48;;;;;;;174.63;156.50;;;;;;;;;;5080270;28;20059;-72
2022/12/15 12:05:28;;;;;;;186.40;159.73;;;;;;;;;;5077393;28;20036;-73
2022/12/15 12:07:59;;;;;;;180.07;159.38;;;;;;;;;;5075435;28;20030;-75
2022/12/15 12:10:33;;;;;;;238.82;203.73;;;;;;;;;;5076731;28;20063;-72
2022/12/15 12:13:01;;;;;;;237.60;198.73;;;;;;;;;;5076633;28;20048;-76
2022/12/15 12:15:27;;;;;;;146.93;130.85;;;;;;;;;;5076647;28;20111;-76
2022/12/15 12:17:54;;;;;;;163.85;146.63;;;;;;;;;;5077207;28;20110;-72
2022/12/15 12:20:39;;;;;;;149.52;133.20;;;;;;;;;;5078470;28;20016;-72
2022/12/15 12:23:16;;;;;;;155.48;138.80;;;;;;;;;;5076918;28;20070;-73
2022/12/15 12:25:57;;;;;;;163.32;145.65;;;;;;;;;;5076527;28;20032;-74
2022/12/15 12:28:27;;;;;;;145.15;129.63;;;;;;;;;;5078222;28;20429;-75
2022/12/15 12:30:54;;;;;;;157.68;140.57;;;;;;;;;;5076238;28;20023;-73
2022/12/15 12:33:28;;;;;;;171.57;152.38;;;;;;;;;;5077717;28;20032;-73
2022/12/15 12:35:59;;;;;;;243.93;217.23;;;;;;;;;;5080951;28;20046;-75
2022/12/15 12:38:35;;;;;;;222.80;199.15;;;;;;;;;;5081631;28;20020;-74
2022/12/15 12:41:03;;;;;;;213.65;190.88;;;;;;;;;;5082263;28;20036;-74
2022/12/15 12:43:31;;;;;;;219.27;196.32;;;;;;;;;;5080485;28;20435;-76
2022/12/15 12:46:00;;;;;;;226.40;202.40;;;;;;;;;;5081285;28;20028;-72
2022/12/15 12:48:37;;;;;;;222.43;198.20;;;;;;;;;;5080544;28;20044;-74
2022/12/15 12:51:22;;;;;;;214.80;191.40;;;;;;;;;;5081432;28;20059;-73
2022/12/15 12:53:47;;;;;;;240.18;214.02;;;;;;;;;;5081593;28;20016;-73
2022/12/15 12:56:31;;;;;;;224.35;201.15;;;;;;;;;;5080563;28;20047;-74
2022/12/15 12:58:56;;;;;;;270.95;241.70;;;;;;;;;;5080766;28;20024;-72
2022/12/15 13:01:29;;;;;;;263.48;234.60;;;;;;;;;;5083076;28;20127;-76
2022/12/15 13:04:23;;;;;;;241.93;215.77;;;;;;;;;;5080300;28;20089;-74
2022/12/15 13:06:49;;;;;;;237.57;212.30;;;;;;;;;;5016784;28;20041;-73
2022/12/15 13:09:17;;;;;;;273.33;244.10;;;;;;;;;;5000580;28;20040;-76
2022/12/15 13:11:51;;;;;;;279.33;248.95;;;;;;;;;;5014900;28;20034;-76
2022/12/15 13:14:29;;;;;;;269.88;240.77;;;;;;;;;;5015998;28;20054;-74
2022/12/15 13:17:24;;;;;;;250.35;223.38;;;;;;;;;;5017536;28;20114;-72
2022/12/15 13:19:52;;;;;;;243.93;218.20;;;;;;;;;;4964252;28;20074;-73
2022/12/15 13:22:29;;;;;;;323.15;286.80;;;;;;;;;;4964165;28;20062;-77
2022/12/15 13:24:55;;;;;;;393.48;337.33;;;;;;;;;;4962554;28;20458;-74
2022/12/15 13:27:20;;;;;;;676.45;527.80;;;;;;;;;;4965081;28;20643;-72
2022/12/15 13:29:53;;;;;;;640.92;514.90;;;;;;;;;;4963002;28;20043;-73
2022/12/15 13:32:27;;;;;;;480.77;394.17;;;;;;;;;;4964891;28;20046;-74
2022/12/15 13:34:52;;;;;;;694.72;558.33;;;;;;;;;;4964948;28;20045;-72
2022/12/15 13:37:44;;;;;;;550.72;442.95;;;;;;;;;;4964082;28;20047;-73
2022/12/15 13:40:32;;;;;;;538.70;437.38;;;;;;;;;;4960495;28;20053;-73
2022/12/15 13:43:17;;;;;;;446.05;359.52;;;;;;;;;;4988170;28;20044;-73
2022/12/15 13:45:45;;;;;;;423.75;336.58;;;;;;;;;;5007556;28;20053;-73
2022/12/15 13:48:19;;;;;;;428.20;343.67;;;;;;;;;;5021818;28;20449;-73
2022/12/15 13:50:50;;;;;;;359.27;302.45;;;;;;;;;;5023197;28;20152;-73
2022/12/15 13:53:18;;;;;;;302.52;269.42;;;;;;;;;;5020287;28;20065;-74
2022/12/15 13:56:04;;;;;;;277.92;248.07;;;;;;;;;;5039150;28;20094;-72
2022/12/15 13:58:32;;;;;;;291.05;255.13;;;;;;;;;;5074526;28;20024;-76
2022/12/15 14:00:57;;;;;;;290.63;256.50;;;;;;;;;;5060929;28;20073;-73
2022/12/15 14:03:23;;;;;;;309.42;275.85;;;;;;;;;;5066704;28;20348;-78
2022/12/15 14:05:58;;;;;;;293.75;259.75;;;;;;;;;;5078863;28;20139;-73
2022/12/15 14:08:25;;;;;;;287.27;255.82;;;;;;;;;;5077709;28;20044;-71
2022/12/15 14:10:52;;;;;;;268.88;239.55;;;;;;;;;;5078750;28;20103;-73
2022/12/15 14:13:20;;;;;;;259.27;231.45;;;;;;;;;;5076541;28;20052;-74
2022/12/15 14:15:47;;;;;;;270.15;241.43;;;;;;;;;;5058398;28;20410;-74
2022/12/15 14:18:26;;;;;;;351.85;304.23;;;;;;;;;;5078232;28;20054;-71
2022/12/15 14:20:52;;;;;;;300.80;267.63;;;;;;;;;;5079451;28;20033;-78
2022/12/15 14:23:18;;;;;;;269.15;231.93;;;;;;;;;;5061037;28;20041;-74
2022/12/15 14:25:54;;;;;;;261.02;232.70;;;;;;;;;;5078666;28;20081;-75
2022/12/15 14:28:28;;;;;;;261.85;232.55;;;;;;;;;;5078013;28;20085;-77
2022/12/15 14:30:55;;;;;;;276.02;246.63;;;;;;;;;;5074550;28;20032;-74
2022/12/15 14:33:21;;;;;;;277.55;247.07;;;;;;;;;;5069440;28;20046;-76
2022/12/15 14:35:48;;;;;;;260.75;231.50;;;;;;;;;;5061791;28;20458;-76
2022/12/15 14:38:22;;;;;;;254.27;226.88;;;;;;;;;;5075900;28;20038;-75
2022/12/15 14:40:48;;;;;;;245.05;218.55;;;;;;;;;;5063582;28;20111;-75
2022/12/15 14:43:25;;;;;;;257.23;229.45;;;;;;;;;;5074940;28;20028;-77
2022/12/15 14:46:08;;;;;;;290.73;256.45;;;;;;;;;;5074752;28;20024;-77
2022/12/15 14:48:35;;;;;;;269.33;239.93;;;;;;;;;;5078621;28;20047;-75
2022/12/15 14:51:01;;;;;;;266.92;238.40;;;;;;;;;;5074459;28;20481;-72
2022/12/15 14:53:31;;;;;;;257.95;229.73;;;;;;;;;;5072497;28;20016;-76
2022/12/15 14:55:59;;;;;;;300.73;267.95;;;;;;;;;;5070432;28;20066;-73
2022/12/15 14:58:33;;;;;;;263.25;234.48;;;;;;;;;;5077534;28;20035;-75
2022/12/15 15:00:59;;;;;;;257.77;230.35;;;;;;;;;;5077785;28;20031;-73
2022/12/15 15:03:33;;;;;;;131.98;117.40;;;;;;;;;;5071448;28;20340;-74
2022/12/15 15:06:00;;;;;;;124.53;111.50;;;;;;;;;;5062722;28;20063;-74
2022/12/15 15:08:27;;;;;;;80.13;71.50;;;;;;;;;;5062855;28;20020;-73
2022/12/15 15:10:58;;;;;;;70.47;62.92;;;;;;;;;;5071380;28;20028;-77
2022/12/15 15:13:25;;;;;;;58.92;52.65;;;;;;;;;;5070167;28;20036;-74
2022/12/15 15:15:56;;;;;;;75.88;67.88;;;;;;;;;;5071927;28;20047;-75
2022/12/15 15:18:22;;;;;;;67.70;60.58;;;;;;;;;;5075675;28;21188;-73
2022/12/15 15:20:56;;;;;;;90.85;80.80;;;;;;;;;;5076765;28;20423;-73
2022/12/15 15:23:21;;;;;;;168.75;144.30;;;;;;;;;;5078672;28;20034;-73
2022/12/15 15:25:53;;;;;;;135.85;117.85;;;;;;;;;;5078328;28;20103;-73
2022/12/15 15:28:21;;;;;;;122.15;108.72;;;;;;;;;;5060863;28;20151;-73
2022/12/15 15:30:50;;;;;;;82.82;73.70;;;;;;;;;;5076977;28;20008;-75
2022/12/15 15:33:16;;;;;;;119.28;103.88;;;;;;;;;;5077497;28;20039;-73
2022/12/15 15:35:42;;;;;;;194.10;159.13;;;;;;;;;;5077889;28;20028;-74
2022/12/15 15:38:15;;;;;;;191.40;155.82;;;;;;;;;;5076700;28;20194;-74
2022/12/15 15:40:40;;;;;;;312.75;251.02;;;;;;;;;;5076337;28;20016;-74
2022/12/15 15:43:12;;;;;;;208.75;158.30;;;;;;;;;;5079033;28;20459;-73
2022/12/15 15:45:39;;;;;;;211.52;165.18;;;;;;;;;;5079106;28;20077;-73
2022/12/15 15:48:04;;;;;;;211.95;167.20;;;;;;;;;;5078967;28;20039;-73
2022/12/15 15:50:31;;;;;;;257.92;208.32;;;;;;;;;;5079769;28;20012;-76
2022/12/15 15:52:56;;;;;;;417.88;353.00;;;;;;;;;;5078867;28;20051;-73
2022/12/15 15:55:28;;;;;;;401.25;337.40;;;;;;;;;;5078808;28;20113;-75
2022/12/15 15:57:53;;;;;;;369.67;315.88;;;;;;;;;;5078595;28;20028;-74
2022/12/15 16:00:20;;;;;;;434.92;354.05;;;;;;;;;;5078297;28;20080;-74
2022/12/15 16:02:46;;;;;;;426.83;339.13;;;;;;;;;;5078306;28;20431;-75
2022/12/15 16:05:12;;;;;;;423.85;357.58;;;;;;;;;;5078187;28;20040;-76
2022/12/15 16:07:37;;;;;;;388.33;327.83;;;;;;;;;;5077480;28;20035;-75
2022/12/15 16:10:03;;;;;;;441.15;348.00;;;;;;;;;;5081214;28;20024;-73
2022/12/15 16:12:32;;;;;;;338.92;278.75;;;;;;;;;;5080477;28;20048;-74
2022/12/15 16:14:57;;;;;;;318.27;272.93;;;;;;;;;;5064743;28;20218;-74
2022/12/15 16:17:22;;;;;;;296.60;264.02;;;;;;;;;;5082637;28;20408;-74
2022/12/15 16:19:48;;;;;;;249.07;222.13;;;;;;;;;;5082181;28;20427;-73
2022/12/15 16:22:20;;;;;;;218.98;195.50;;;;;;;;;;5083585;28;20024;-73
2022/12/15 16:24:46;;;;;;;338.38;292.45;;;;;;;;;;5081894;28;20020;-74
2022/12/15 16:27:12;;;;;;;398.88;335.17;;;;;;;;;;5079445;28;20040;-74
2022/12/15 16:29:37;;;;;;;445.15;378.85;;;;;;;;;;5081221;28;20039;-74
2022/12/15 16:32:04;;;;;;;432.02;377.02;;;;;;;;;;5080337;28;20039;-73
2022/12/15 16:34:29;;;;;;;413.25;353.00;;;;;;;;;;5077132;28;20029;-73
2022/12/15 16:36:54;;;;;;;431.98;372.80;;;;;;;;;;5081620;28;20047;-73
2022/12/15 16:39:27;;;;;;;392.15;331.48;;;;;;;;;;5061269;28;20039;-74
2022/12/15 16:41:54;;;;;;;397.40;340.70;;;;;;;;;;5079955;28;20032;-76
2022/12/15 16:44:19;;;;;;;412.63;336.17;;;;;;;;;;5083264;28;20028;-74